Time;durP1;ratioP1;P1;durP2;ratioP2;P2;SDS_P1;SDS_P2;PMS_P1;PMS_P2;Temp;Humidity;BMP_temperature;BMP_pressure;BME280_temperature;BME280_humidity;BME280_pressure;Samples;Min_cycle;Max_cycle;Signal;HPM_P1;HPM_P2
2020/12/01 00:00:49;;;;;;;50.30;25.42;;;1.20;99.90;;;;;;5072601;28;20021;-79
2020/12/01 00:03:15;;;;;;;45.42;24.95;;;1.00;99.90;;;;;;5071701;28;20032;-79
2020/12/01 00:05:41;;;;;;;42.10;23.88;;;1.20;99.90;;;;;;5071601;28;20028;-79
2020/12/01 00:08:06;;;;;;;41.67;22.73;;;1.00;99.90;;;;;;5071637;28;20035;-79
2020/12/01 00:10:34;;;;;;;41.45;23.98;;;1.30;99.90;;;;;;5071597;28;20021;-79
2020/12/01 00:13:00;;;;;;;35.92;20.95;;;1.60;99.90;;;;;;5071347;28;20055;-79
2020/12/01 00:15:26;;;;;;;42.00;23.27;;;1.60;99.90;;;;;;5072843;28;20017;-79
2020/12/01 00:17:52;;;;;;;37.85;21.85;;;1.80;99.90;;;;;;5071601;28;20472;-79
2020/12/01 00:20:21;;;;;;;45.45;25.08;;;1.80;99.90;;;;;;5073737;28;20486;-79
2020/12/01 00:22:47;;;;;;;45.80;25.15;;;1.60;99.90;;;;;;5076381;28;20025;-79
2020/12/01 00:25:15;;;;;;;43.90;22.67;;;1.70;99.90;;;;;;5076299;28;20056;-79
2020/12/01 00:27:41;;;;;;;32.90;20.13;;;1.80;99.90;;;;;;5076580;28;20056;-78
2020/12/01 00:30:15;;;;;;;40.22;22.48;;;1.80;99.90;;;;;;5076842;28;20529;-78
2020/12/01 00:32:41;;;;;;;29.83;18.65;;;1.90;99.90;;;;;;5075017;28;20028;-79
2020/12/01 00:35:08;;;;;;;48.55;26.23;;;2.00;99.90;;;;;;5076199;28;20028;-79
2020/12/01 00:37:37;;;;;;;49.17;26.15;;;1.90;99.90;;;;;;5076385;28;20021;-79
2020/12/01 00:40:07;;;;;;;38.67;22.45;;;2.00;99.90;;;;;;5091723;28;20082;-78
2020/12/01 00:42:33;;;;;;;39.83;23.98;;;2.00;99.90;;;;;;5076308;28;20025;-78
2020/12/01 00:44:58;;;;;;;43.88;22.80;;;1.70;99.90;;;;;;5091594;28;20035;-78
2020/12/01 00:47:24;;;;;;;34.33;19.27;;;1.70;99.90;;;;;;5091478;28;20110;-78
2020/12/01 00:49:50;;;;;;;37.22;20.52;;;1.90;99.90;;;;;;5076149;28;20078;-78
2020/12/01 00:52:16;;;;;;;35.63;18.77;;;1.90;99.90;;;;;;5075815;28;20021;-78
2020/12/01 00:54:43;;;;;;;39.53;23.25;;;1.70;99.90;;;;;;5074566;28;20082;-78
2020/12/01 00:57:09;;;;;;;41.55;24.13;;;1.80;99.90;;;;;;5075990;28;20028;-78
2020/12/01 00:59:35;;;;;;;38.30;21.20;;;1.80;99.90;;;;;;5074490;28;20055;-79
2020/12/01 01:02:00;;;;;;;31.30;19.17;;;1.80;99.90;;;;;;5075712;28;20028;-79
2020/12/01 01:04:26;;;;;;;38.58;22.38;;;2.00;99.90;;;;;;5074407;28;20387;-78
2020/12/01 01:06:52;;;;;;;32.90;19.42;;;2.00;99.90;;;;;;5075838;28;20056;-78
2020/12/01 01:09:18;;;;;;;39.10;22.25;;;2.00;99.90;;;;;;5074298;28;20032;-78
2020/12/01 01:11:44;;;;;;;43.17;23.48;;;1.80;99.90;;;;;;5075316;28;20052;-78
2020/12/01 01:14:10;;;;;;;41.78;23.50;;;1.70;99.90;;;;;;5075555;28;20024;-78
2020/12/01 01:16:40;;;;;;;39.58;20.70;;;1.80;99.90;;;;;;5075676;28;20017;-78
2020/12/01 01:19:06;;;;;;;34.22;19.38;;;1.90;99.90;;;;;;5090938;28;20017;-78
2020/12/01 01:21:37;;;;;;;33.22;20.02;;;1.90;99.90;;;;;;5074305;28;20043;-78
2020/12/01 01:24:03;;;;;;;39.33;20.85;;;2.10;99.90;;;;;;5090925;28;20422;-79
2020/12/01 01:26:28;;;;;;;35.03;20.75;;;2.20;99.90;;;;;;5073957;28;20082;-79
2020/12/01 01:28:54;;;;;;;38.42;21.70;;;2.20;99.90;;;;;;5075452;28;20021;-78
2020/12/01 01:31:20;;;;;;;43.88;23.70;;;1.90;99.90;;;;;;5073695;28;20032;-78
2020/12/01 01:33:45;;;;;;;34.17;19.88;;;1.60;99.90;;;;;;5073713;28;20024;-79
2020/12/01 01:36:11;;;;;;;39.38;22.27;;;1.70;99.90;;;;;;5073721;28;20116;-79
2020/12/01 01:38:37;;;;;;;44.10;21.63;;;1.70;99.90;;;;;;5073675;28;20021;-79
2020/12/01 01:41:02;;;;;;;40.42;21.55;;;1.60;99.90;;;;;;5073643;28;20047;-79
2020/12/01 01:43:28;;;;;;;36.72;20.90;;;1.60;99.90;;;;;;5074795;28;20025;-78
2020/12/01 01:45:54;;;;;;;36.00;21.33;;;1.70;99.90;;;;;;5074730;28;20069;-79
2020/12/01 01:48:24;;;;;;;36.92;20.88;;;1.50;99.90;;;;;;5074771;28;20029;-79
2020/12/01 01:51:11;;;;;;;39.33;21.33;;;1.60;99.90;;;;;;5074645;28;20025;-78
2020/12/01 01:53:42;;;;;;;37.30;21.27;;;1.50;99.90;;;;;;5074600;28;20096;-79
2020/12/01 01:56:12;;;;;;;31.13;16.08;;;1.40;99.90;;;;;;5074672;28;20027;-78
2020/12/01 01:58:40;;;;;;;34.20;19.02;;;1.70;99.90;;;;;;5074600;28;20091;-78
2020/12/01 02:01:15;;;;;;;36.15;20.60;;;1.80;99.90;;;;;;5090165;28;20035;-78
2020/12/01 02:03:46;;;;;;;39.47;22.83;;;1.80;99.90;;;;;;5074534;28;20479;-78
2020/12/01 02:06:52;;;;;;;34.88;19.23;;;1.80;99.90;;;;;;5074408;28;20028;-79
2020/12/01 02:09:27;;;;;;;29.95;16.83;;;2.00;99.90;;;;;;5071865;28;20487;-78
2020/12/01 02:11:55;;;;;;;40.70;21.83;;;2.00;99.90;;;;;;5089731;28;20039;-78
2020/12/01 02:14:40;;;;;;;31.80;19.27;;;2.00;99.90;;;;;;5090134;28;20028;-79
2020/12/01 02:17:15;;;;;;;29.05;16.67;;;2.00;99.90;;;;;;5074253;28;20029;-78
2020/12/01 02:19:41;;;;;;;32.72;18.67;;;2.00;99.90;;;;;;5072887;28;20384;-78
2020/12/01 02:22:15;;;;;;;35.30;20.75;;;2.10;99.90;;;;;;5074107;28;20429;-79
2020/12/01 02:24:40;;;;;;;31.92;19.00;;;2.00;99.90;;;;;;5072855;28;20029;-79
2020/12/01 02:27:06;;;;;;;32.03;17.27;;;1.90;99.90;;;;;;5074266;28;20033;-79
2020/12/01 02:29:35;;;;;;;33.88;19.98;;;2.00;99.90;;;;;;5073976;28;20105;-79
2020/12/01 02:32:02;;;;;;;39.05;21.80;;;2.10;99.90;;;;;;5074200;28;20158;-79
2020/12/01 02:34:32;;;;;;;31.95;18.75;;;1.90;99.90;;;;;;5072642;28;20021;-79
2020/12/01 02:37:00;;;;;;;32.38;18.15;;;1.70;99.90;;;;;;5089537;28;20021;-79
2020/12/01 02:39:28;;;;;;;40.28;22.25;;;1.80;99.90;;;;;;5073841;28;20435;-79
2020/12/01 02:41:58;;;;;;;33.63;19.10;;;1.70;99.90;;;;;;5088930;28;20048;-80
2020/12/01 02:44:24;;;;;;;34.22;20.23;;;1.80;99.90;;;;;;5072481;28;20029;-80
2020/12/01 02:46:50;;;;;;;29.02;18.10;;;1.90;99.90;;;;;;5089286;28;20074;-80
2020/12/01 02:49:16;;;;;;;35.38;19.60;;;1.90;99.90;;;;;;5072427;28;20029;-79
2020/12/01 02:51:41;;;;;;;40.17;21.20;;;1.90;99.90;;;;;;5072372;28;20033;-79
2020/12/01 02:54:07;;;;;;;31.25;17.63;;;1.80;99.90;;;;;;5072390;28;20020;-79
2020/12/01 02:56:33;;;;;;;28.52;14.98;;;2.00;99.90;;;;;;5072388;28;20020;-79
2020/12/01 02:58:59;;;;;;;34.17;19.52;;;2.10;99.90;;;;;;5073644;28;20425;-80
2020/12/01 03:01:24;;;;;;;35.00;19.10;;;2.10;99.90;;;;;;5073628;28;20379;-79
2020/12/01 03:03:50;;;;;;;35.88;20.08;;;2.10;99.90;;;;;;5073536;28;20025;-80
2020/12/01 03:06:18;;;;;;;34.70;18.08;;;2.00;99.90;;;;;;5072301;28;20024;-80
2020/12/01 03:08:44;;;;;;;34.80;19.27;;;1.90;99.90;;;;;;5089040;28;20107;-80
2020/12/01 03:11:10;;;;;;;32.10;18.02;;;1.80;99.90;;;;;;5073481;28;20024;-81
2020/12/01 03:13:36;;;;;;;27.70;16.00;;;1.80;99.90;;;;;;5073192;28;20051;-81
2020/12/01 03:16:07;;;;;;;31.58;17.48;;;2.00;99.90;;;;;;5073445;28;20056;-81
2020/12/01 03:18:33;;;;;;;34.88;19.83;;;2.00;99.90;;;;;;5073751;28;20440;-81
2020/12/01 03:20:59;;;;;;;28.08;16.20;;;1.90;99.90;;;;;;5072185;28;20105;-81
2020/12/01 03:23:24;;;;;;;40.67;21.90;;;1.80;99.90;;;;;;5072111;28;20171;-81
2020/12/01 03:25:50;;;;;;;38.67;20.88;;;1.80;99.90;;;;;;5073916;28;20099;-81
2020/12/01 03:28:16;;;;;;;31.88;19.05;;;1.80;99.90;;;;;;5073310;28;20058;-81
2020/12/01 03:30:42;;;;;;;30.20;17.85;;;1.80;99.90;;;;;;5072313;28;20419;-82
2020/12/01 03:33:08;;;;;;;30.67;16.80;;;1.90;99.90;;;;;;5071923;28;20028;-81
2020/12/01 03:35:34;;;;;;;30.90;17.02;;;2.00;99.90;;;;;;5088816;28;20078;-81
2020/12/01 03:38:00;;;;;;;37.63;19.83;;;2.10;99.90;;;;;;5071954;28;20021;-81
2020/12/01 03:40:26;;;;;;;36.95;20.70;;;2.10;99.90;;;;;;5071952;28;20136;-80
2020/12/01 03:42:52;;;;;;;31.50;18.30;;;1.90;99.90;;;;;;5072042;28;20079;-81
2020/12/01 03:45:17;;;;;;;38.83;19.90;;;1.80;99.90;;;;;;5071882;28;20028;-81
2020/12/01 03:47:43;;;;;;;33.88;19.05;;;1.80;99.90;;;;;;5071792;28;20549;-80
2020/12/01 03:50:09;;;;;;;31.55;19.50;;;1.90;99.90;;;;;;5073661;28;20029;-80
2020/12/01 03:52:37;;;;;;;38.75;21.95;;;1.80;99.90;;;;;;5072991;28;20360;-81
2020/12/01 03:55:05;;;;;;;38.78;20.17;;;1.90;99.90;;;;;;5075066;28;20020;-80
2020/12/01 03:57:40;;;;;;;38.17;21.67;;;1.90;99.90;;;;;;5092513;28;20021;-80
2020/12/01 04:00:10;;;;;;;36.67;19.20;;;1.80;99.90;;;;;;5075635;28;20024;-81
2020/12/01 04:02:36;;;;;;;31.00;17.83;;;1.80;99.90;;;;;;5092516;28;20021;-80
2020/12/01 04:05:02;;;;;;;34.10;19.33;;;1.90;99.90;;;;;;5076731;28;20028;-81
2020/12/01 04:07:28;;;;;;;35.45;20.55;;;2.00;99.90;;;;;;5076749;28;20047;-80
2020/12/01 04:09:54;;;;;;;25.20;15.30;;;2.10;99.90;;;;;;5076654;28;20480;-81
2020/12/01 04:12:19;;;;;;;35.90;20.60;;;2.20;99.90;;;;;;5075069;28;20391;-81
2020/12/01 04:14:45;;;;;;;35.53;20.67;;;2.20;99.90;;;;;;5075329;28;20421;-80
2020/12/01 04:17:11;;;;;;;34.67;18.38;;;2.30;99.90;;;;;;5075438;28;20063;-80
2020/12/01 04:19:36;;;;;;;28.33;17.05;;;2.20;99.90;;;;;;5075209;28;20059;-81
2020/12/01 04:22:02;;;;;;;28.20;16.73;;;2.20;99.90;;;;;;5075146;28;20036;-81
2020/12/01 04:24:28;;;;;;;27.70;16.70;;;2.20;99.90;;;;;;5058500;28;20551;-81
2020/12/01 04:26:59;;;;;;;26.77;15.05;;;2.20;99.90;;;;;;5076658;28;20024;-81
2020/12/01 04:29:25;;;;;;;29.85;18.15;;;2.30;99.90;;;;;;5091972;28;20047;-80
2020/12/01 04:31:50;;;;;;;35.40;20.05;;;2.40;99.90;;;;;;5076191;28;20473;-80
2020/12/01 04:34:17;;;;;;;34.28;18.55;;;2.40;99.90;;;;;;5074913;28;20027;-80
2020/12/01 04:36:43;;;;;;;27.25;15.98;;;2.50;99.90;;;;;;5074871;28;20044;-81
2020/12/01 04:39:09;;;;;;;35.10;20.77;;;2.50;99.90;;;;;;5074845;28;20099;-80
2020/12/01 04:41:35;;;;;;;31.42;18.50;;;2.50;99.90;;;;;;5076060;28;20025;-80
2020/12/01 04:44:02;;;;;;;36.45;20.40;;;2.60;99.90;;;;;;5076011;28;20035;-80
2020/12/01 04:46:32;;;;;;;29.40;17.73;;;2.50;99.90;;;;;;5091513;28;20029;-80
2020/12/01 04:49:09;;;;;;;32.55;18.95;;;2.40;99.90;;;;;;5090959;28;20020;-80
2020/12/01 04:51:38;;;;;;;27.40;15.98;;;2.30;99.90;;;;;;5075883;28;20480;-80
2020/12/01 04:54:41;;;;;;;26.92;15.88;;;2.30;99.90;;;;;;5074591;28;20369;-80
2020/12/01 04:57:19;;;;;;;29.83;16.42;;;2.40;99.90;;;;;;5091376;28;20094;-80
2020/12/01 05:00:08;;;;;;;28.63;16.15;;;2.40;99.90;;;;;;5075862;28;20013;-80
2020/12/01 05:02:46;;;;;;;25.20;14.30;;;2.40;99.90;;;;;;5046756;28;20491;-80
2020/12/01 05:05:57;;;;;;;23.88;14.77;;;2.30;99.90;;;;;;5073939;28;20025;-81
2020/12/01 05:08:31;;;;;;;26.20;15.07;;;2.30;99.90;;;;;;5091259;28;20067;-80
2020/12/01 05:11:31;;;;;;;23.02;14.45;;;2.30;99.90;;;;;;5075911;28;20016;-80
2020/12/01 05:14:06;;;;;;;25.50;14.52;;;2.40;99.90;;;;;;5041238;28;20033;-79
2020/12/01 05:16:46;;;;;;;25.98;15.10;;;2.50;99.90;;;;;;5075472;28;20032;-80
2020/12/01 05:19:32;;;;;;;21.95;13.70;;;2.50;99.90;;;;;;5075339;28;20056;-80
2020/12/01 05:21:57;;;;;;;21.20;13.13;;;2.50;99.90;;;;;;5075377;28;20027;-81
2020/12/01 05:24:23;;;;;;;20.10;12.68;;;2.60;99.90;;;;;;5074003;28;20032;-80
2020/12/01 05:26:49;;;;;;;26.02;13.50;;;2.50;99.90;;;;;;5075516;28;20021;-80
2020/12/01 05:29:25;;;;;;;30.77;17.30;;;2.70;99.90;;;;;;5073924;28;20025;-81
2020/12/01 05:31:51;;;;;;;26.70;15.73;;;2.70;99.90;;;;;;5075020;28;20103;-81
2020/12/01 05:34:19;;;;;;;20.73;13.65;;;2.70;99.90;;;;;;5073789;28;20124;-80
2020/12/01 05:36:45;;;;;;;22.10;12.80;;;2.60;99.90;;;;;;5075023;28;20375;-80
2020/12/01 05:39:24;;;;;;;20.08;12.13;;;2.70;99.90;;;;;;5090642;28;20021;-80
2020/12/01 05:42:03;;;;;;;18.85;11.55;;;2.70;99.90;;;;;;5073648;28;20025;-80
2020/12/01 05:44:31;;;;;;;18.63;11.65;;;2.70;99.90;;;;;;5090466;28;20043;-81
2020/12/01 05:47:05;;;;;;;17.40;11.77;;;2.80;99.90;;;;;;5090400;28;20438;-80
2020/12/01 05:49:42;;;;;;;23.70;13.18;;;2.80;99.90;;;;;;5073589;28;20027;-80
2020/12/01 05:52:14;;;;;;;18.60;12.52;;;2.60;99.90;;;;;;5074722;28;20031;-80
2020/12/01 05:54:45;;;;;;;16.92;10.23;;;2.60;99.90;;;;;;5073351;28;20024;-81
2020/12/01 05:57:26;;;;;;;17.80;10.85;;;2.60;99.90;;;;;;5090388;28;20021;-80
2020/12/01 06:00:00;;;;;;;14.80;9.85;;;2.60;99.90;;;;;;5074455;28;20074;-80
2020/12/01 06:02:58;;;;;;;15.05;8.77;;;2.70;99.90;;;;;;5073095;28;20044;-80
2020/12/01 06:05:26;;;;;;;15.13;9.50;;;2.60;99.90;;;;;;5090107;28;20508;-80
2020/12/01 06:07:55;;;;;;;13.98;8.50;;;2.60;99.90;;;;;;5073044;28;20021;-80
2020/12/01 06:10:40;;;;;;;14.43;8.18;;;2.60;99.90;;;;;;5089956;28;20024;-79
2020/12/01 06:13:42;;;;;;;11.88;8.00;;;2.50;99.90;;;;;;5074079;28;20049;-80
2020/12/01 06:16:08;;;;;;;11.82;7.43;;;2.60;99.90;;;;;;5074389;28;20028;-79
2020/12/01 06:18:52;;;;;;;11.05;6.55;;;2.70;99.90;;;;;;5072229;28;20033;-79
2020/12/01 06:21:38;;;;;;;;;;;2.90;99.90;;;;;;5073310;28;20499;-79
2020/12/01 06:24:26;;;;;;;7.78;4.70;;;2.90;99.90;;;;;;5072259;28;19912;-79
2020/12/01 06:27:13;;;;;;;4.95;3.63;;;2.90;99.90;;;;;;5072815;28;20119;-79
2020/12/01 06:30:12;;;;;;;6.95;4.80;;;2.90;99.90;;;;;;5072768;28;20031;-79
2020/12/01 06:32:40;;;;;;;6.55;4.20;;;2.90;99.90;;;;;;5073960;28;20074;-79
2020/12/01 06:35:24;;;;;;;6.65;4.15;;;2.90;99.90;;;;;;5072714;28;20021;-79
2020/12/01 06:38:12;;;;;;;8.52;5.60;;;2.90;99.90;;;;;;5072710;28;20028;-80
2020/12/01 06:40:56;;;;;;;7.85;5.28;;;2.90;99.90;;;;;;5072517;28;20028;-80
2020/12/01 06:43:24;;;;;;;10.25;5.80;;;3.00;99.90;;;;;;5074107;28;20024;-80
2020/12/01 06:45:54;;;;;;;9.32;5.75;;;2.90;99.90;;;;;;5089346;28;20553;-80
2020/12/01 06:48:27;;;;;;;12.10;6.90;;;3.00;99.90;;;;;;5089416;28;20035;-80
2020/12/01 06:51:00;;;;;;;8.20;5.38;;;3.00;99.90;;;;;;5072580;28;20388;-80
2020/12/01 06:53:36;;;;;;;10.35;6.05;;;3.00;99.90;;;;;;5089250;28;20369;-79
2020/12/01 06:56:05;;;;;;;9.10;5.00;;;2.90;99.90;;;;;;5072631;28;20479;-80
2020/12/01 06:58:40;;;;;;;7.57;4.78;;;2.90;99.90;;;;;;5072352;28;20414;-80
2020/12/01 07:01:18;;;;;;;9.68;5.30;;;2.90;99.90;;;;;;5089244;28;20023;-78
2020/12/01 07:03:45;;;;;;;8.55;4.70;;;2.90;99.90;;;;;;5072276;28;20102;-78
2020/12/01 07:06:25;;;;;;;9.18;3.90;;;3.00;99.90;;;;;;5089151;28;20143;-78
2020/12/01 07:08:51;;;;;;;7.47;4.00;;;2.90;99.90;;;;;;5072203;28;20021;-80
2020/12/01 07:11:30;;;;;;;8.40;4.15;;;2.90;99.90;;;;;;5072161;28;20031;-81
2020/12/01 07:14:15;;;;;;;4.40;3.13;;;2.90;99.90;;;;;;5088931;28;20488;-81
2020/12/01 07:16:47;;;;;;;5.65;3.67;;;2.80;99.90;;;;;;5088969;28;20070;-81
2020/12/01 07:19:22;;;;;;;6.78;3.45;;;2.90;99.90;;;;;;5089059;28;20029;-81
2020/12/01 07:22:20;;;;;;;5.72;3.47;;;2.80;99.90;;;;;;5088981;28;20020;-81
2020/12/01 07:25:02;;;;;;;6.82;3.90;;;2.80;99.90;;;;;;5039086;28;20039;-81
2020/12/01 07:27:40;;;;;;;5.40;3.55;;;2.90;99.90;;;;;;5088916;28;20024;-81
2020/12/01 07:30:20;;;;;;;8.18;3.50;;;2.90;99.90;;;;;;5075960;28;20025;-81
2020/12/01 07:32:58;;;;;;;4.28;2.88;;;2.90;99.90;;;;;;5077701;28;20062;-81
2020/12/01 07:36:05;;;;;;;4.75;3.17;;;3.00;99.90;;;;;;5076029;28;20029;-81
2020/12/01 07:38:38;;;;;;;5.35;3.40;;;3.00;99.90;;;;;;5063955;28;20056;-81
2020/12/01 07:41:26;;;;;;;3.40;2.42;;;2.90;99.90;;;;;;5092919;28;20365;-81
2020/12/01 07:44:04;;;;;;;4.45;3.03;;;2.90;99.90;;;;;;5075982;28;20028;-81
2020/12/01 07:49:24;;;;;;;5.15;3.13;;;2.90;99.90;;;;;;5077163;28;20475;-81
2020/12/01 07:52:01;;;;;;;4.88;3.25;;;3.00;99.90;;;;;;5092663;28;20082;-81
2020/12/01 07:54:27;;;;;;;8.48;3.67;;;3.10;99.90;;;;;;5092697;28;20400;-80
2020/12/01 07:56:53;;;;;;;5.47;3.33;;;3.00;99.90;;;;;;5092610;28;20021;-79
2020/12/01 07:59:18;;;;;;;5.75;3.63;;;2.90;99.90;;;;;;5075929;28;20043;-79
2020/12/01 08:01:45;;;;;;;5.82;3.15;;;2.90;99.90;;;;;;5076843;28;20055;-79
2020/12/01 08:04:13;;;;;;;6.43;3.80;;;2.80;99.90;;;;;;5075499;28;20484;-79
2020/12/01 08:06:39;;;;;;;5.32;3.80;;;2.70;99.90;;;;;;5077105;28;20028;-79
2020/12/01 08:09:25;;;;;;;6.35;3.78;;;2.70;99.90;;;;;;5092418;28;20093;-79
2020/12/01 08:11:55;;;;;;;4.70;3.00;;;2.70;99.90;;;;;;5091865;28;20492;-79
2020/12/01 08:14:21;;;;;;;9.95;3.95;;;2.70;99.90;;;;;;5092034;28;20404;-79
2020/12/01 08:17:19;;;;;;;5.18;3.33;;;2.70;99.90;;;;;;5075291;28;20051;-79
2020/12/01 08:19:47;;;;;;;4.95;3.53;;;2.70;99.90;;;;;;5077033;28;20436;-79
2020/12/01 08:22:17;;;;;;;6.28;3.95;;;2.80;99.90;;;;;;5092072;28;20029;-79
2020/12/01 08:24:45;;;;;;;6.93;3.92;;;2.80;99.90;;;;;;5077069;28;20091;-78
2020/12/01 08:27:32;;;;;;;17.83;5.35;;;2.70;99.90;;;;;;5076381;28;20022;-79
2020/12/01 08:29:59;;;;;;;10.40;5.72;;;2.70;99.90;;;;;;5092018;28;20390;-79
2020/12/01 08:32:34;;;;;;;20.10;7.90;;;2.70;99.90;;;;;;5074965;28;20120;-79
2020/12/01 08:35:35;;;;;;;10.88;5.32;;;2.70;99.90;;;;;;5076268;28;20047;-79
2020/12/01 08:38:19;;;;;;;10.73;6.18;;;2.80;99.90;;;;;;5076566;28;20048;-79
2020/12/01 08:41:13;;;;;;;8.23;5.43;;;2.80;99.90;;;;;;5073955;28;20081;-79
2020/12/01 08:43:54;;;;;;;;;;;2.80;99.90;;;;;;5075310;28;20031;-79
2020/12/01 08:46:24;;;;;;;7.05;4.72;;;2.70;99.90;;;;;;5091635;28;19904;-79
2020/12/01 08:49:06;;;;;;;6.05;4.68;;;2.70;99.90;;;;;;5091643;28;20047;-79
2020/12/01 08:51:48;;;;;;;6.70;4.82;;;2.80;99.90;;;;;;5091680;28;20086;-79
2020/12/01 08:54:18;;;;;;;9.35;5.97;;;2.70;99.90;;;;;;5091585;28;20035;-79
2020/12/01 08:56:47;;;;;;;8.50;5.05;;;2.70;99.90;;;;;;5076240;28;20081;-79
2020/12/01 08:59:22;;;;;;;9.23;6.05;;;2.70;99.90;;;;;;5075819;28;20158;-79
2020/12/01 09:01:48;;;;;;;9.68;5.47;;;2.70;99.90;;;;;;5091374;28;20032;-79
2020/12/01 09:04:25;;;;;;;15.75;8.05;;;2.70;99.90;;;;;;5075720;28;20039;-79
2020/12/01 09:06:55;;;;;;;14.18;6.35;;;2.70;99.90;;;;;;5075656;28;20039;-79
2020/12/01 09:09:26;;;;;;;12.30;7.85;;;2.70;99.90;;;;;;5075620;28;20013;-78
2020/12/01 09:18:33;;;;;;;12.30;5.60;;;2.80;99.90;;;;;;5070851;28;20086;-79
2020/12/01 09:23:20;;;;;;;10.80;5.15;;;2.80;99.90;;;;;;5075977;28;20035;-79
2020/12/01 09:25:48;;;;;;;8.00;5.40;;;2.90;99.90;;;;;;5090902;28;20024;-78
2020/12/01 09:28:21;;;;;;;13.80;7.30;;;2.90;99.90;;;;;;5075250;28;20028;-79
2020/12/01 09:30:48;;;;;;;7.35;4.60;;;2.90;99.90;;;;;;5075241;28;20031;-79
2020/12/01 09:33:18;;;;;;;12.55;7.07;;;3.00;99.90;;;;;;5073791;28;20522;-79
2020/12/01 09:35:44;;;;;;;5.93;4.13;;;3.00;99.90;;;;;;5090715;28;20020;-79
2020/12/01 09:38:10;;;;;;;11.73;5.00;;;3.00;99.90;;;;;;5075297;28;20028;-78
2020/12/01 09:40:38;;;;;;;15.27;8.70;;;3.10;99.90;;;;;;5090551;28;20021;-78
2020/12/01 09:46:03;;;;;;;6.88;4.43;;;3.00;99.90;;;;;;5072017;28;20036;-77
2020/12/01 09:48:35;;;;;;;7.72;4.07;;;3.10;99.90;;;;;;5074842;28;20078;-78
2020/12/01 09:51:02;;;;;;;8.93;5.03;;;3.10;99.90;;;;;;5074734;28;20020;-78
2020/12/01 09:56:27;;;;;;;5.85;3.80;;;2.90;99.90;;;;;;5074714;28;20354;-78
2020/12/01 09:59:28;;;;;;;6.47;4.05;;;2.90;99.90;;;;;;5074974;28;20012;-78
2020/12/01 10:10:08;;;;;;;6.88;5.10;;;3.20;99.90;;;;;;5074986;28;20074;-78
2020/12/01 10:15:36;;;;;;;9.85;5.28;;;3.30;99.90;;;;;;5074347;28;20353;-78
2020/12/01 10:34:17;;;;;;;7.45;4.82;;;3.00;99.90;;;;;;5072691;28;20105;-78
2020/12/01 10:36:40;;;;;;;6.03;4.40;;;3.00;99.90;;;;;;5073914;28;20020;-79
2020/12/01 10:39:08;;;;;;;11.95;5.40;;;3.00;99.90;;;;;;5089519;28;20023;-79
2020/12/01 10:41:34;;;;;;;7.50;4.72;;;3.00;99.90;;;;;;5089527;28;20035;-79
2020/12/01 10:44:02;;;;;;;11.75;5.05;;;2.90;99.90;;;;;;5073884;28;20547;-78
2020/12/01 10:46:28;;;;;;;13.63;8.02;;;3.00;99.90;;;;;;5074044;28;20029;-79
2020/12/01 10:48:54;;;;;;;10.30;5.65;;;3.00;99.90;;;;;;5072572;28;20498;-79
2020/12/01 10:51:20;;;;;;;8.68;5.30;;;3.00;99.90;;;;;;5073812;28;20048;-79
2020/12/01 10:53:46;;;;;;;8.63;5.30;;;3.10;99.90;;;;;;5073662;28;20056;-79
2020/12/01 10:56:13;;;;;;;8.75;4.82;;;3.10;99.90;;;;;;5072429;28;20024;-78
2020/12/01 10:58:39;;;;;;;6.38;4.40;;;3.10;99.90;;;;;;5072394;28;20432;-79
2020/12/01 11:01:04;;;;;;;8.98;6.07;;;3.10;99.90;;;;;;5073906;28;20050;-79
2020/12/01 11:03:30;;;;;;;8.32;4.93;;;3.20;99.90;;;;;;5072184;28;20032;-78
2020/12/01 11:05:56;;;;;;;7.57;5.18;;;3.20;99.90;;;;;;5072255;28;20497;-79
2020/12/01 11:08:21;;;;;;;6.25;4.78;;;3.30;99.90;;;;;;5072321;28;20039;-78
2020/12/01 11:10:47;;;;;;;8.18;5.47;;;3.30;99.90;;;;;;5073858;28;20024;-78
2020/12/01 11:13:13;;;;;;;7.07;4.72;;;3.30;99.90;;;;;;5073122;28;20510;-79
2020/12/01 11:15:39;;;;;;;11.60;7.10;;;3.30;99.90;;;;;;5073628;28;20052;-79
2020/12/01 11:18:06;;;;;;;15.48;7.47;;;3.20;99.90;;;;;;5072276;28;20069;-79
2020/12/01 11:20:33;;;;;;;7.90;4.30;;;3.20;99.90;;;;;;5072190;28;20020;-79
2020/12/01 11:22:59;;;;;;;9.32;4.90;;;3.30;99.90;;;;;;5088961;28;20035;-79
2020/12/01 11:25:25;;;;;;;11.93;7.43;;;3.30;99.90;;;;;;5073379;28;20029;-79
2020/12/01 11:27:51;;;;;;;9.25;6.18;;;3.10;99.90;;;;;;5072181;28;20093;-79
2020/12/01 11:30:19;;;;;;;13.23;7.35;;;3.10;99.90;;;;;;5072111;28;20539;-79
2020/12/01 11:32:45;;;;;;;8.98;5.30;;;3.10;99.90;;;;;;5088790;28;20029;-79
2020/12/01 11:35:12;;;;;;;13.85;9.10;;;3.10;99.90;;;;;;5088919;28;20024;-79
2020/12/01 11:37:38;;;;;;;18.95;13.95;;;3.20;99.90;;;;;;5073301;28;20044;-79
2020/12/01 11:40:06;;;;;;;16.73;9.73;;;3.10;99.90;;;;;;5073528;28;20124;-79
2020/12/01 11:42:31;;;;;;;19.98;13.52;;;3.10;99.90;;;;;;5088800;28;20391;-79
2020/12/01 11:44:57;;;;;;;14.30;6.88;;;3.10;99.90;;;;;;5073177;28;20029;-79
2020/12/01 11:47:26;;;;;;;12.45;8.75;;;3.20;99.90;;;;;;5071910;28;20031;-79
2020/12/01 11:49:52;;;;;;;13.90;8.45;;;3.20;99.90;;;;;;5073738;28;20035;-79
2020/12/01 11:52:18;;;;;;;11.50;8.20;;;3.20;99.90;;;;;;5073087;28;20104;-80
2020/12/01 11:54:43;;;;;;;16.20;7.03;;;3.10;99.90;;;;;;5073038;28;20593;-79
2020/12/01 11:57:09;;;;;;;12.13;7.18;;;3.10;99.90;;;;;;5071790;28;20035;-78
2020/12/01 11:59:35;;;;;;;9.27;6.20;;;3.10;99.90;;;;;;5071811;28;20016;-79
2020/12/01 12:02:00;;;;;;;14.57;7.22;;;3.10;99.90;;;;;;5073590;28;20032;-79
2020/12/01 12:04:26;;;;;;;18.55;10.55;;;3.10;99.90;;;;;;5073291;28;20020;-79
2020/12/01 12:06:52;;;;;;;15.85;8.40;;;3.20;99.90;;;;;;5088540;28;20485;-79
2020/12/01 12:09:18;;;;;;;12.85;7.93;;;3.20;99.90;;;;;;5071925;28;20505;-79
2020/12/01 12:11:44;;;;;;;14.68;9.18;;;3.20;99.90;;;;;;5088398;28;20483;-79
2020/12/01 12:14:11;;;;;;;23.30;14.25;;;3.20;99.90;;;;;;5071801;28;20093;-79
2020/12/01 12:16:37;;;;;;;12.35;8.35;;;3.20;99.90;;;;;;5074439;28;20039;-79
2020/12/01 12:19:03;;;;;;;16.58;8.15;;;3.30;99.90;;;;;;5076475;28;20024;-79
2020/12/01 12:21:29;;;;;;;12.52;8.07;;;3.40;99.90;;;;;;5092166;28;20024;-79
2020/12/01 12:23:55;;;;;;;16.08;12.18;;;3.60;99.90;;;;;;5076420;28;20033;-79
2020/12/01 12:26:21;;;;;;;18.88;10.52;;;3.70;99.90;;;;;;5076438;28;20029;-79
2020/12/01 12:28:47;;;;;;;10.55;6.72;;;3.70;99.90;;;;;;5075146;28;20387;-77
2020/12/01 12:31:14;;;;;;;9.85;6.18;;;3.80;99.90;;;;;;5075171;28;20082;-77
2020/12/01 12:33:40;;;;;;;10.00;5.75;;;3.80;99.90;;;;;;5076279;28;20430;-77
2020/12/01 12:36:06;;;;;;;13.18;6.15;;;3.90;99.90;;;;;;5091977;28;20025;-78
2020/12/01 12:38:31;;;;;;;19.08;8.40;;;4.00;99.90;;;;;;5076521;28;20024;-77
2020/12/01 12:40:58;;;;;;;23.58;9.80;;;4.10;99.90;;;;;;5076756;28;20020;-77
2020/12/01 12:43:26;;;;;;;12.15;7.93;;;4.10;99.90;;;;;;5091724;28;20226;-77
2020/12/01 12:45:52;;;;;;;9.10;6.15;;;4.20;99.90;;;;;;5058386;28;20032;-78
2020/12/01 12:48:20;;;;;;;10.13;6.78;;;4.20;99.90;;;;;;5076200;28;20438;-77
2020/12/01 12:50:45;;;;;;;9.55;6.22;;;4.30;99.90;;;;;;5091775;28;20476;-78
2020/12/01 12:53:11;;;;;;;9.27;6.20;;;4.20;99.90;;;;;;5076183;28;20021;-77
2020/12/01 12:55:37;;;;;;;6.85;5.10;;;4.10;99.90;;;;;;5074703;28;20449;-79
2020/12/01 12:58:03;;;;;;;7.03;4.88;;;4.00;99.90;;;;;;5076056;28;20078;-78
2020/12/01 13:00:30;;;;;;;8.60;5.15;;;3.90;99.90;;;;;;5075947;28;20032;-78
2020/12/01 13:02:56;;;;;;;9.52;6.65;;;3.80;99.90;;;;;;5091426;28;20028;-78
2020/12/01 13:05:23;;;;;;;12.60;6.13;;;3.70;99.90;;;;;;5091423;28;20369;-79
2020/12/01 13:07:49;;;;;;;7.72;5.20;;;3.70;99.90;;;;;;5075711;28;20481;-78
2020/12/01 13:10:15;;;;;;;11.50;6.60;;;3.70;99.90;;;;;;5075578;28;20060;-78
2020/12/01 13:12:41;;;;;;;11.70;7.65;;;3.70;99.90;;;;;;5075292;28;20113;-79
2020/12/01 13:15:08;;;;;;;12.07;8.00;;;3.80;99.90;;;;;;5075558;28;20028;-78
2020/12/01 13:17:34;;;;;;;12.00;5.65;;;4.30;99.90;;;;;;5075524;28;20024;-79
2020/12/01 13:20:00;;;;;;;5.70;4.25;;;6.00;99.90;;;;;;5091095;28;20021;-80
2020/12/01 13:22:26;;;;;;;8.77;4.65;;;6.90;99.90;;;;;;5074111;28;20052;-79
2020/12/01 13:24:52;;;;;;;7.47;4.70;;;7.30;99.90;;;;;;5074101;28;20025;-79
2020/12/01 13:27:18;;;;;;;9.38;3.92;;;7.30;99.90;;;;;;5074919;28;20029;-79
2020/12/01 13:29:47;;;;;;;8.98;4.70;;;7.20;99.90;;;;;;5074108;28;20028;-80
2020/12/01 13:32:13;;;;;;;9.63;7.28;;;6.70;99.90;;;;;;5073858;28;20025;-79
2020/12/01 13:34:39;;;;;;;9.32;6.60;;;6.40;99.90;;;;;;5073853;28;20036;-79
2020/12/01 13:37:07;;;;;;;7.15;4.95;;;6.30;99.90;;;;;;5073850;28;20025;-79
2020/12/01 13:39:33;;;;;;;5.30;3.90;;;6.20;99.90;;;;;;5090998;28;20448;-79
2020/12/01 13:41:59;;;;;;;8.35;3.67;;;6.10;99.90;;;;;;5074982;28;20048;-79
2020/12/01 13:44:25;;;;;;;6.63;3.80;;;5.80;99.90;;;;;;5074952;28;20090;-78
2020/12/01 13:46:55;;;;;;;5.85;3.33;;;5.60;99.90;;;;;;5074791;28;20031;-78